sensor_id;sensor_type;location;lat;lon;timestamp;pressure;altitude;pressure_sealevel;temperature;humidity
41230;BME280;26964;50.428;19.218;2022-12-16T00:04:29;1011.5;;;-2.9;80.3
41230;BME280;26964;50.428;19.218;2022-12-16T00:09:28;1011.6;;;-2.9;80.4
41230;BME280;26964;50.428;19.218;2022-12-16T00:14:29;1011.5;;;-2.9;80.4
41230;BME280;26964;50.428;19.218;2022-12-16T00:19:28;1011.6;;;-3.0;80.4
41230;BME280;26964;50.428;19.218;2022-12-16T00:24:29;1011.7;;;-3.0;80.4
41230;BME280;26964;50.428;19.218;2022-12-16T00:29:29;1011.5;;;-2.9;80.5
41230;BME280;26964;50.428;19.218;2022-12-16T00:34:28;1011.5;;;-2.9;80.4
41230;BME280;26964;50.428;19.218;2022-12-16T00:39:28;1011.5;;;-3.0;80.5
41230;BME280;26964;50.428;19.218;2022-12-16T00:44:29;1011.4;;;-3.0;80.5
41230;BME280;26964;50.428;19.218;2022-12-16T00:49:28;1011.2;;;-3.0;80.5
41230;BME280;26964;50.428;19.218;2022-12-16T00:54:29;1011.4;;;-3.0;80.5
41230;BME280;26964;50.428;19.218;2022-12-16T00:59:29;1011.3;;;-3.0;80.5
41230;BME280;26964;50.428;19.218;2022-12-16T01:04:28;1011.2;;;-3.1;80.6
41230;BME280;26964;50.428;19.218;2022-12-16T01:09:28;1011.1;;;-3.1;80.6
41230;BME280;26964;50.428;19.218;2022-12-16T01:14:28;1011.3;;;-3.1;80.7
41230;BME280;26964;50.428;19.218;2022-12-16T01:19:28;1011.0;;;-3.1;80.7
41230;BME280;26964;50.428;19.218;2022-12-16T01:24:29;1011.1;;;-3.1;80.7
41230;BME280;26964;50.428;19.218;2022-12-16T01:29:28;1010.9;;;-3.2;80.7
41230;BME280;26964;50.428;19.218;2022-12-16T01:34:28;1010.8;;;-3.2;80.7
41230;BME280;26964;50.428;19.218;2022-12-16T01:39:29;1010.6;;;-3.3;80.6
41230;BME280;26964;50.428;19.218;2022-12-16T01:44:28;1010.7;;;-3.3;80.8
41230;BME280;26964;50.428;19.218;2022-12-16T01:49:33;1010.7;;;-3.3;80.8
41230;BME280;26964;50.428;19.218;2022-12-16T01:54:30;1010.6;;;-3.3;80.8
41230;BME280;26964;50.428;19.218;2022-12-16T01:59:32;1010.5;;;-3.3;80.8
41230;BME280;26964;50.428;19.218;2022-12-16T02:04:28;1010.2;;;-3.3;80.8
41230;BME280;26964;50.428;19.218;2022-12-16T02:09:29;1010.2;;;-3.3;80.9
41230;BME280;26964;50.428;19.218;2022-12-16T02:34:34;1010.0;;;-3.5;81.0
41230;BME280;26964;50.428;19.218;2022-12-16T02:39:33;1009.8;;;-3.5;81.1
41230;BME280;26964;50.428;19.218;2022-12-16T02:44:33;1009.8;;;-3.5;81.0
41230;BME280;26964;50.428;19.218;2022-12-16T02:54:29;1009.5;;;-3.6;81.1
41230;BME280;26964;50.428;19.218;2022-12-16T02:59:34;1009.5;;;-3.6;81.2
41230;BME280;26964;50.428;19.218;2022-12-16T03:04:34;1009.5;;;-3.6;81.3
41230;BME280;26964;50.428;19.218;2022-12-16T03:09:31;1009.5;;;-3.6;81.3
41230;BME280;26964;50.428;19.218;2022-12-16T03:14:32;1009.5;;;-3.5;81.3
41230;BME280;26964;50.428;19.218;2022-12-16T03:19:29;1009.6;;;-3.5;81.3
41230;BME280;26964;50.428;19.218;2022-12-16T03:24:28;1009.5;;;-3.5;81.3
41230;BME280;26964;50.428;19.218;2022-12-16T03:29:34;1009.4;;;-3.5;81.2
41230;BME280;26964;50.428;19.218;2022-12-16T03:34:33;1009.2;;;-3.5;81.3
41230;BME280;26964;50.428;19.218;2022-12-16T03:39:30;1009.1;;;-3.6;81.3
41230;BME280;26964;50.428;19.218;2022-12-16T03:44:28;1009.0;;;-3.5;81.3
41230;BME280;26964;50.428;19.218;2022-12-16T03:49:28;1008.9;;;-3.6;81.3
41230;BME280;26964;50.428;19.218;2022-12-16T03:54:39;1008.9;;;-3.6;81.4
41230;BME280;26964;50.428;19.218;2022-12-16T03:59:29;1008.9;;;-3.6;81.4
41230;BME280;26964;50.428;19.218;2022-12-16T04:04:28;1008.8;;;-3.6;81.4
41230;BME280;26964;50.428;19.218;2022-12-16T04:09:28;1008.8;;;-3.6;81.4
41230;BME280;26964;50.428;19.218;2022-12-16T04:14:28;1008.9;;;-3.7;81.4
41230;BME280;26964;50.428;19.218;2022-12-16T04:19:32;1008.8;;;-3.6;81.5
41230;BME280;26964;50.428;19.218;2022-12-16T04:24:29;1008.7;;;-3.6;81.4
41230;BME280;26964;50.428;19.218;2022-12-16T04:29:28;1008.7;;;-3.6;81.4
41230;BME280;26964;50.428;19.218;2022-12-16T04:34:29;1008.6;;;-3.6;81.4
41230;BME280;26964;50.428;19.218;2022-12-16T04:39:28;1008.8;;;-3.6;81.5
41230;BME280;26964;50.428;19.218;2022-12-16T04:44:28;1008.7;;;-3.5;81.5
41230;BME280;26964;50.428;19.218;2022-12-16T04:49:29;1008.8;;;-3.5;81.5
41230;BME280;26964;50.428;19.218;2022-12-16T04:54:29;1008.7;;;-3.5;81.5
41230;BME280;26964;50.428;19.218;2022-12-16T04:59:28;1008.8;;;-3.5;81.5
41230;BME280;26964;50.428;19.218;2022-12-16T05:04:29;1008.9;;;-3.4;81.5
41230;BME280;26964;50.428;19.218;2022-12-16T05:09:28;1008.7;;;-3.4;81.6
41230;BME280;26964;50.428;19.218;2022-12-16T05:14:28;1008.6;;;-3.3;81.6
41230;BME280;26964;50.428;19.218;2022-12-16T05:19:29;1008.6;;;-3.3;81.6
41230;BME280;26964;50.428;19.218;2022-12-16T05:24:29;1008.6;;;-3.3;81.6
41230;BME280;26964;50.428;19.218;2022-12-16T05:29:28;1008.6;;;-3.3;81.6
41230;BME280;26964;50.428;19.218;2022-12-16T05:34:29;1008.6;;;-3.3;81.6
41230;BME280;26964;50.428;19.218;2022-12-16T05:39:29;1008.4;;;-3.3;81.5
41230;BME280;26964;50.428;19.218;2022-12-16T05:44:28;1008.4;;;-3.4;81.5
41230;BME280;26964;50.428;19.218;2022-12-16T05:49:29;1008.3;;;-3.4;81.6
41230;BME280;26964;50.428;19.218;2022-12-16T05:54:29;1008.4;;;-3.4;81.7
41230;BME280;26964;50.428;19.218;2022-12-16T05:59:28;1008.2;;;-3.4;81.6
41230;BME280;26964;50.428;19.218;2022-12-16T06:04:29;1008.3;;;-3.4;81.7
41230;BME280;26964;50.428;19.218;2022-12-16T06:09:29;1008.2;;;-3.4;81.7
41230;BME280;26964;50.428;19.218;2022-12-16T06:14:29;1008.3;;;-3.4;81.7
41230;BME280;26964;50.428;19.218;2022-12-16T06:19:29;1008.3;;;-3.4;81.7
41230;BME280;26964;50.428;19.218;2022-12-16T06:24:28;1008.2;;;-3.5;81.7
41230;BME280;26964;50.428;19.218;2022-12-16T06:29:28;1008.1;;;-3.4;81.8
41230;BME280;26964;50.428;19.218;2022-12-16T06:34:28;1008.0;;;-3.5;81.9
41230;BME280;26964;50.428;19.218;2022-12-16T06:39:29;1007.9;;;-3.5;81.9
41230;BME280;26964;50.428;19.218;2022-12-16T06:44:29;1008.1;;;-3.5;81.9
41230;BME280;26964;50.428;19.218;2022-12-16T06:49:28;1008.2;;;-3.5;82.0
41230;BME280;26964;50.428;19.218;2022-12-16T06:54:28;1008.0;;;-3.4;82.0
41230;BME280;26964;50.428;19.218;2022-12-16T06:59:29;1008.0;;;-3.4;82.1
41230;BME280;26964;50.428;19.218;2022-12-16T07:04:28;1008.1;;;-3.4;82.1
41230;BME280;26964;50.428;19.218;2022-12-16T07:09:28;1007.9;;;-3.4;82.2
41230;BME280;26964;50.428;19.218;2022-12-16T07:14:28;1008.0;;;-3.3;82.2
41230;BME280;26964;50.428;19.218;2022-12-16T07:19:28;1008.0;;;-3.3;82.3
41230;BME280;26964;50.428;19.218;2022-12-16T07:24:28;1008.0;;;-3.2;82.2
41230;BME280;26964;50.428;19.218;2022-12-16T07:29:28;1007.8;;;-3.2;82.3
41230;BME280;26964;50.428;19.218;2022-12-16T07:34:34;1007.8;;;-3.1;82.2
41230;BME280;26964;50.428;19.218;2022-12-16T07:39:29;1007.8;;;-3.1;82.2
41230;BME280;26964;50.428;19.218;2022-12-16T07:44:27;1007.8;;;-3.0;82.1
41230;BME280;26964;50.428;19.218;2022-12-16T07:49:28;1007.7;;;-3.0;82.1
41230;BME280;26964;50.428;19.218;2022-12-16T07:54:28;1007.7;;;-3.0;82.1
41230;BME280;26964;50.428;19.218;2022-12-16T07:59:28;1007.6;;;-3.1;82.1
41230;BME280;26964;50.428;19.218;2022-12-16T08:04:28;1007.6;;;-3.1;82.1
41230;BME280;26964;50.428;19.218;2022-12-16T08:09:28;1007.7;;;-3.0;82.2
41230;BME280;26964;50.428;19.218;2022-12-16T08:14:28;1007.8;;;-3.0;82.2
41230;BME280;26964;50.428;19.218;2022-12-16T08:19:28;1007.8;;;-3.0;82.2
41230;BME280;26964;50.428;19.218;2022-12-16T08:24:27;1007.7;;;-2.9;82.2
41230;BME280;26964;50.428;19.218;2022-12-16T08:29:29;1007.9;;;-2.9;82.2
41230;BME280;26964;50.428;19.218;2022-12-16T08:34:28;1007.9;;;-2.9;82.2
41230;BME280;26964;50.428;19.218;2022-12-16T08:39:28;1008.0;;;-2.8;82.2
41230;BME280;26964;50.428;19.218;2022-12-16T08:44:28;1008.1;;;-2.7;82.2
41230;BME280;26964;50.428;19.218;2022-12-16T08:49:28;1008.1;;;-2.6;82.2
41230;BME280;26964;50.428;19.218;2022-12-16T08:54:28;1008.2;;;-2.6;82.2
41230;BME280;26964;50.428;19.218;2022-12-16T08:59:28;1008.1;;;-2.5;82.1
41230;BME280;26964;50.428;19.218;2022-12-16T09:04:28;1008.2;;;-2.5;82.1
41230;BME280;26964;50.428;19.218;2022-12-16T09:09:27;1008.2;;;-2.4;82.1
41230;BME280;26964;50.428;19.218;2022-12-16T09:14:27;1008.2;;;-2.4;82.0
41230;BME280;26964;50.428;19.218;2022-12-16T09:19:27;1008.3;;;-2.5;82.0
41230;BME280;26964;50.428;19.218;2022-12-16T09:24:28;1008.2;;;-2.5;82.1
41230;BME280;26964;50.428;19.218;2022-12-16T09:29:27;1008.4;;;-2.4;82.2
41230;BME280;26964;50.428;19.218;2022-12-16T09:34:27;1008.4;;;-2.3;82.3
41230;BME280;26964;50.428;19.218;2022-12-16T09:39:28;1008.6;;;-2.2;82.5
41230;BME280;26964;50.428;19.218;2022-12-16T09:49:34;1008.8;;;-2.1;82.3
41230;BME280;26964;50.428;19.218;2022-12-16T09:54:28;1008.8;;;-1.9;82.6
41230;BME280;26964;50.428;19.218;2022-12-16T09:59:32;1008.9;;;-1.8;82.7
41230;BME280;26964;50.428;19.218;2022-12-16T10:04:33;1008.9;;;-1.7;82.5
41230;BME280;26964;50.428;19.218;2022-12-16T10:09:33;1008.8;;;-1.6;82.3
41230;BME280;26964;50.428;19.218;2022-12-16T10:14:33;1008.8;;;-1.6;82.2
41230;BME280;26964;50.428;19.218;2022-12-16T10:19:33;1008.7;;;-1.5;82.3
41230;BME280;26964;50.428;19.218;2022-12-16T10:24:34;1008.7;;;-1.5;82.2
41230;BME280;26964;50.428;19.218;2022-12-16T10:29:29;1008.6;;;-1.5;81.9
41230;BME280;26964;50.428;19.218;2022-12-16T10:34:34;1008.8;;;-1.5;81.8
41230;BME280;26964;50.428;19.218;2022-12-16T17:15:04;1013.1;;;-2.6;81.4
41230;BME280;26964;50.428;19.218;2022-12-16T17:20:06;1013.2;;;-2.7;81.5
41230;BME280;26964;50.428;19.218;2022-12-16T17:24:57;1013.3;;;-2.7;81.6
41230;BME280;26964;50.428;19.218;2022-12-16T17:29:54;1013.3;;;-2.7;81.5
41230;BME280;26964;50.428;19.218;2022-12-16T17:36:44;1013.5;;;-2.7;81.5
41230;BME280;26964;50.428;19.218;2022-12-16T17:39:53;1013.6;;;-2.7;81.4
41230;BME280;26964;50.428;19.218;2022-12-16T17:49:54;1013.9;;;-2.7;81.7
41230;BME280;26964;50.428;19.218;2022-12-16T17:54:52;1013.9;;;-2.8;81.3
41230;BME280;26964;50.428;19.218;2022-12-16T18:04:54;1013.8;;;-2.9;81.5
41230;BME280;26964;50.428;19.218;2022-12-16T18:09:54;1013.9;;;-2.9;81.5
41230;BME280;26964;50.428;19.218;2022-12-16T18:29:57;1014.2;;;-3.1;81.6
41230;BME280;26964;50.428;19.218;2022-12-16T18:34:57;1014.2;;;-3.1;81.7
41230;BME280;26964;50.428;19.218;2022-12-16T19:04:57;1014.3;;;-3.2;81.8
41230;BME280;26964;50.428;19.218;2022-12-16T19:39:55;1014.7;;;-3.3;81.9
41230;BME280;26964;50.428;19.218;2022-12-16T19:55:04;1015.1;;;-3.4;81.9
41230;BME280;26964;50.428;19.218;2022-12-16T21:09:53;1016.1;;;-3.5;82.1
41230;BME280;26964;50.428;19.218;2022-12-16T21:14:53;1016.1;;;-3.6;82.1
41230;BME280;26964;50.428;19.218;2022-12-16T21:19:52;1016.1;;;-3.6;82.1
41230;BME280;26964;50.428;19.218;2022-12-16T21:24:52;1016.2;;;-3.6;82.1
41230;BME280;26964;50.428;19.218;2022-12-16T21:29:52;1016.2;;;-3.6;82.2
41230;BME280;26964;50.428;19.218;2022-12-16T21:34:52;1016.2;;;-3.5;82.4
41230;BME280;26964;50.428;19.218;2022-12-16T21:39:52;1016.2;;;-3.4;82.6
41230;BME280;26964;50.428;19.218;2022-12-16T21:44:52;1016.2;;;-3.5;82.2
41230;BME280;26964;50.428;19.218;2022-12-16T21:49:52;1016.3;;;-3.5;82.3
41230;BME280;26964;50.428;19.218;2022-12-16T21:54:53;1016.4;;;-3.4;82.2
41230;BME280;26964;50.428;19.218;2022-12-16T21:59:53;1016.3;;;-3.6;82.0
41230;BME280;26964;50.428;19.218;2022-12-16T22:04:53;1016.3;;;-3.6;82.1
41230;BME280;26964;50.428;19.218;2022-12-16T22:09:53;1016.4;;;-3.6;82.3
41230;BME280;26964;50.428;19.218;2022-12-16T22:14:52;1016.5;;;-3.6;82.3
41230;BME280;26964;50.428;19.218;2022-12-16T22:19:52;1016.4;;;-3.6;82.1
41230;BME280;26964;50.428;19.218;2022-12-16T22:24:52;1016.5;;;-3.7;82.1
41230;BME280;26964;50.428;19.218;2022-12-16T22:29:52;1016.6;;;-3.7;82.2
41230;BME280;26964;50.428;19.218;2022-12-16T22:39:52;1016.6;;;-3.8;82.2
41230;BME280;26964;50.428;19.218;2022-12-16T22:44:52;1016.5;;;-3.8;82.2
41230;BME280;26964;50.428;19.218;2022-12-16T22:49:52;1016.6;;;-3.8;82.3
41230;BME280;26964;50.428;19.218;2022-12-16T22:54:52;1016.6;;;-3.8;82.2
41230;BME280;26964;50.428;19.218;2022-12-16T22:59:53;1016.7;;;-3.8;82.2
41230;BME280;26964;50.428;19.218;2022-12-16T23:04:52;1016.6;;;-3.8;82.3
41230;BME280;26964;50.428;19.218;2022-12-16T23:09:52;1016.8;;;-3.9;82.2
41230;BME280;26964;50.428;19.218;2022-12-16T23:14:53;1016.7;;;-3.9;82.3
41230;BME280;26964;50.428;19.218;2022-12-16T23:19:52;1016.7;;;-3.8;82.5
41230;BME280;26964;50.428;19.218;2022-12-16T23:24:52;1016.7;;;-3.9;82.3
41230;BME280;26964;50.428;19.218;2022-12-16T23:29:52;1016.7;;;-3.9;82.3
41230;BME280;26964;50.428;19.218;2022-12-16T23:34:52;1016.6;;;-4.0;82.2
41230;BME280;26964;50.428;19.218;2022-12-16T23:39:52;1016.7;;;-4.0;82.2
41230;BME280;26964;50.428;19.218;2022-12-16T23:44:52;1016.7;;;-4.0;82.4
41230;BME280;26964;50.428;19.218;2022-12-16T23:49:52;1016.8;;;-4.0;82.3
41230;BME280;26964;50.428;19.218;2022-12-16T23:54:52;1017.0;;;-4.0;82.4
41230;BME280;26964;50.428;19.218;2022-12-16T23:59:52;1017.1;;;-4.0;82.3
